Time;durP1;ratioP1;P1;durP2;ratioP2;P2;SDS_P1;SDS_P2;PMS_P1;PMS_P2;Temp;Humidity;BMP_temperature;BMP_pressure;BME280_temperature;BME280_humidity;BME280_pressure;Samples;Min_cycle;Max_cycle;Signal;HPM_P1;HPM_P2
2023/12/04 00:01:29;;;;;;;6.40;2.13;;;;;;;6.22;48.72;99686.19;5069232;28;20040;-79
2023/12/04 00:03:54;;;;;;;7.03;1.70;;;;;;;6.16;49.08;99681.81;5069160;28;20036;-79
2023/12/04 00:06:21;;;;;;;5.33;1.83;;;;;;;6.16;49.06;99681.81;5069319;28;20021;-79
2023/12/04 00:08:46;;;;;;;4.72;1.50;;;;;;;6.17;49.93;99673.09;5069339;28;20024;-80
2023/12/04 00:11:12;;;;;;;3.80;1.20;;;;;;;6.16;49.83;99682.66;5071491;28;20032;-79
2023/12/04 00:13:37;;;;;;;5.83;2.03;;;;;;;6.15;49.68;99674.84;5073199;28;20034;-79
2023/12/04 00:16:03;;;;;;;5.35;1.55;;;;;;;6.12;50.05;99667.84;5073348;28;20028;-79
2023/12/04 00:18:28;;;;;;;5.30;1.57;;;;;;;6.11;50.58;99670.44;5073088;28;20040;-79
2023/12/04 00:20:54;;;;;;;6.67;1.90;;;;;;;6.06;51.13;99653.88;5072954;28;20567;-80
2023/12/04 00:23:19;;;;;;;5.13;1.70;;;;;;;6.00;51.60;99645.09;5072852;28;20312;-79
2023/12/04 00:25:44;;;;;;;5.37;1.70;;;;;;;5.99;51.80;99653.81;5072723;28;20059;-79
2023/12/04 00:28:10;;;;;;;5.37;1.83;;;;;;;6.00;53.20;99654.66;5072832;28;20035;-79
2023/12/04 00:30:35;;;;;;;7.30;1.70;;;;;;;5.99;53.27;99658.16;5073048;28;20025;-79
2023/12/04 00:33:00;;;;;;;6.40;1.43;;;;;;;5.94;53.73;99650.31;5072870;28;20045;-79
2023/12/04 00:35:26;;;;;;;5.43;1.45;;;;;;;5.94;53.20;99655.53;5072800;28;20048;-79
2023/12/04 00:37:51;;;;;;;7.80;1.73;;;;;;;5.92;54.34;99651.16;5072888;28;20044;-79
2023/12/04 00:40:17;;;;;;;4.90;1.70;;;;;;;5.95;54.27;99641.59;5072671;28;20377;-79
2023/12/04 00:42:42;;;;;;;6.67;2.17;;;;;;;5.92;55.13;99644.22;5072598;28;20025;-80
2023/12/04 00:45:08;;;;;;;4.37;1.40;;;;;;;5.96;54.54;99642.47;5072542;28;20066;-80
2023/12/04 00:47:33;;;;;;;6.13;1.70;;;;;;;5.97;55.03;99636.38;5072652;28;20024;-79
2023/12/04 00:49:59;;;;;;;4.70;2.00;;;;;;;5.97;55.54;99613.72;5072732;28;20113;-79
2023/12/04 00:52:24;;;;;;;5.67;1.83;;;;;;;5.98;55.23;99611.97;5072436;28;20035;-80
2023/12/04 00:54:49;;;;;;;6.13;2.00;;;;;;;6.00;56.10;99603.28;5072723;28;20033;-79
2023/12/04 00:57:15;;;;;;;7.70;2.00;;;;;;;6.01;55.96;99594.63;5072582;28;20255;-79
2023/12/04 00:59:40;;;;;;;8.13;2.00;;;;;;;5.99;55.71;99600.66;5072162;28;20486;-79
2023/12/04 01:02:07;;;;;;;6.33;2.07;;;;;;;6.02;55.96;99595.47;5072270;28;20021;-79
2023/12/04 01:04:32;;;;;;;6.00;2.58;;;;;;;6.03;56.94;99598.09;5072235;28;20055;-79
2023/12/04 01:06:58;;;;;;;6.43;2.10;;;;;;;6.06;57.02;99599.88;5072328;28;20500;-79
2023/12/04 01:09:24;;;;;;;7.13;2.03;;;;;;;6.07;56.66;99598.09;5072254;28;20298;-79
2023/12/04 01:11:53;;;;;;;5.87;1.90;;;;;;;6.07;57.09;99595.50;5072426;28;20024;-79
2023/12/04 01:14:19;;;;;;;7.37;1.73;;;;;;;6.03;57.96;99603.34;5072383;28;20267;-80
2023/12/04 01:16:45;;;;;;;6.97;1.92;;;;;;;6.05;57.41;99594.63;5072033;28;20020;-79
2023/12/04 01:19:10;;;;;;;7.40;1.90;;;;;;;6.06;57.49;99591.13;5072017;28;20031;-79
2023/12/04 01:21:36;;;;;;;6.55;2.13;;;;;;;6.05;57.46;99584.16;5071270;28;20512;-79
2023/12/04 01:24:01;;;;;;;6.23;2.00;;;;;;;6.05;58.66;99584.16;5070647;28;20115;-79
2023/12/04 01:26:26;;;;;;;10.67;2.37;;;;;;;6.02;58.68;99580.69;5071942;28;20020;-80
2023/12/04 01:28:52;;;;;;;10.03;2.40;;;;;;;6.05;58.88;99594.63;5071857;28;20453;-79
2023/12/04 01:31:17;;;;;;;6.40;2.10;;;;;;;6.06;59.65;99594.63;5072064;28;20028;-79
2023/12/04 01:33:42;;;;;;;6.95;2.40;;;;;;;6.09;59.07;99596.38;5071689;28;20078;-79
2023/12/04 01:36:08;;;;;;;7.20;1.97;;;;;;;6.08;59.64;99590.28;5071782;28;20059;-79
2023/12/04 01:38:34;;;;;;;6.80;2.10;;;;;;;6.08;59.48;99589.41;5071596;28;20095;-79
2023/12/04 01:40:59;;;;;;;4.87;1.80;;;;;;;6.12;59.75;99591.16;5071618;28;20094;-79
2023/12/04 01:43:24;;;;;;;5.73;2.10;;;;;;;6.13;60.46;99598.13;5071298;28;20271;-79
2023/12/04 01:45:52;;;;;;;6.30;2.00;;;;;;;6.14;59.96;99589.41;5071587;28;20028;-79
2023/12/04 01:48:17;;;;;;;5.75;1.58;;;;;;;6.14;59.56;99585.06;5071469;28;20055;-79
2023/12/04 01:50:43;;;;;;;7.50;2.23;;;;;;;6.15;60.69;99591.19;5071672;28;20052;-79
2023/12/04 01:53:09;;;;;;;6.10;1.70;;;;;;;6.14;60.08;99592.91;5071581;28;20020;-79
2023/12/04 01:55:37;;;;;;;6.78;1.90;;;;;;;6.16;60.14;99577.25;5071496;28;20035;-79
2023/12/04 01:58:03;;;;;;;5.30;1.63;;;;;;;6.18;60.30;99580.72;5071436;28;20093;-79
2023/12/04 02:00:31;;;;;;;7.90;2.00;;;;;;;6.18;60.65;99571.13;5070954;28;20473;-79
2023/12/04 02:02:58;;;;;;;6.55;1.70;;;;;;;6.17;60.91;99579.00;5070930;28;20024;-79
2023/12/04 02:05:26;;;;;;;6.57;2.03;;;;;;;6.21;61.98;99567.66;5071374;28;20028;-79
2023/12/04 02:07:52;;;;;;;5.75;2.05;;;;;;;6.22;61.46;99582.47;5071033;28;20122;-79
2023/12/04 02:10:18;;;;;;;5.60;2.13;;;;;;;6.23;61.51;99594.69;5071193;28;20051;-80
2023/12/04 02:12:44;;;;;;;6.75;1.80;;;;;;;6.24;61.78;99572.91;5071180;28;20514;-79
2023/12/04 02:15:10;;;;;;;5.53;1.77;;;;;;;6.25;62.67;99560.69;5069615;28;20063;-79
2023/12/04 02:17:36;;;;;;;7.10;1.80;;;;;;;6.28;62.51;99574.66;5070885;28;20082;-79
2023/12/04 02:20:03;;;;;;;5.45;1.83;;;;;;;6.28;63.06;99564.19;5070581;28;20456;-79
2023/12/04 02:22:29;;;;;;;6.65;2.00;;;;;;;6.36;63.62;99563.31;5050823;28;20036;-80
2023/12/04 02:24:58;;;;;;;5.67;1.83;;;;;;;6.36;64.08;99563.31;5061738;28;20044;-79
2023/12/04 02:27:40;;;;;;;5.03;1.90;;;;;;;6.40;64.32;99554.63;5070710;28;20043;-79
2023/12/04 02:30:11;;;;;;;8.52;2.40;;;;;;;6.41;64.29;99551.16;5050591;28;20037;-79
2023/12/04 02:32:42;;;;;;;5.90;1.90;;;;;;;6.41;63.77;99546.78;5050868;28;20115;-78
2023/12/04 02:35:10;;;;;;;6.88;1.80;;;;;;;6.39;65.10;99545.91;5050553;28;20087;-80
2023/12/04 02:37:36;;;;;;;7.72;2.00;;;;;;;6.44;64.76;99552.00;5032868;28;20064;-80
2023/12/04 02:40:03;;;;;;;7.40;2.40;;;;;;;6.42;65.88;99553.75;5050565;28;20064;-80
2023/12/04 02:42:28;;;;;;;6.78;1.98;;;;;;;6.46;64.73;99554.63;5050415;28;20033;-81
2023/12/04 02:44:54;;;;;;;7.70;2.23;;;;;;;6.46;66.02;99554.63;5050253;28;20036;-79
2023/12/04 02:47:19;;;;;;;8.30;2.50;;;;;;;6.49;66.59;99549.41;5050442;28;20112;-79
2023/12/04 02:49:45;;;;;;;10.73;2.73;;;;;;;6.56;66.19;99555.53;5050498;28;20031;-79
2023/12/04 02:52:10;;;;;;;7.30;2.33;;;;;;;6.54;65.93;99555.50;5050417;28;20025;-79
2023/12/04 02:54:35;;;;;;;8.80;2.10;;;;;;;6.52;65.29;99549.41;5050519;28;20029;-79
2023/12/04 02:57:01;;;;;;;6.45;2.33;;;;;;;6.55;66.23;99536.31;5050180;28;20039;-79
2023/12/04 02:59:26;;;;;;;6.97;2.20;;;;;;;6.55;66.26;99533.72;5049953;28;20090;-79
2023/12/04 03:01:52;;;;;;;7.00;2.40;;;;;;;6.59;66.60;99551.13;5056897;28;20107;-79
2023/12/04 03:04:19;;;;;;;7.93;2.20;;;;;;;6.57;67.02;99538.94;5070138;28;20535;-78
2023/12/04 03:06:45;;;;;;;7.72;2.40;;;;;;;6.55;67.11;99533.72;5070002;28;20016;-78
2023/12/04 03:09:11;;;;;;;6.20;2.20;;;;;;;6.57;67.39;99542.41;5069944;28;20032;-79
2023/12/04 03:11:40;;;;;;;8.43;2.50;;;;;;;6.60;67.42;99549.41;5070160;28;20064;-79
2023/12/04 03:14:05;;;;;;;7.93;2.50;;;;;;;6.61;67.27;99552.00;5068451;28;20532;-79
2023/12/04 03:16:30;;;;;;;6.17;2.10;;;;;;;6.64;67.08;99568.63;5069674;28;20032;-79
2023/12/04 03:18:56;;;;;;;9.77;2.87;;;;;;;6.63;67.89;99559.00;5069884;28;20103;-79
2023/12/04 03:21:21;;;;;;;10.03;2.77;;;;;;;6.67;67.92;99566.00;5069785;28;20047;-79
2023/12/04 03:23:47;;;;;;;14.88;2.75;;;;;;;6.66;68.04;99574.72;5066986;28;20055;-79
2023/12/04 03:26:12;;;;;;;8.83;2.47;;;;;;;6.65;67.51;99580.81;5069518;28;20060;-78
2023/12/04 03:28:39;;;;;;;8.23;3.00;;;;;;;6.65;68.72;99588.66;5069638;28;20028;-79
2023/12/04 03:31:04;;;;;;;7.32;2.65;;;;;;;6.69;67.13;99608.72;5069842;28;20031;-79
2023/12/04 03:33:30;;;;;;;8.80;2.50;;;;;;;6.68;67.46;99606.97;5069872;28;20036;-79
2023/12/04 03:35:55;;;;;;;9.37;2.83;;;;;;;6.68;67.10;99592.13;5069877;28;20392;-79
2023/12/04 03:38:20;;;;;;;8.27;3.20;;;;;;;6.68;67.99;99576.44;5069799;28;20356;-79
2023/12/04 03:40:46;;;;;;;10.40;3.33;;;;;;;6.67;67.69;99568.59;5069371;28;20033;-78
2023/12/04 03:43:11;;;;;;;8.03;3.00;;;;;;;6.65;68.10;99568.59;5069503;28;20059;-79
2023/12/04 03:45:36;;;;;;;9.67;3.07;;;;;;;6.62;68.44;99560.75;5068718;28;20048;-79
2023/12/04 03:48:02;;;;;;;11.20;3.87;;;;;;;6.63;68.36;99559.00;5069629;28;20013;-78
2023/12/04 03:50:27;;;;;;;7.10;2.57;;;;;;;6.55;68.74;99554.63;5069624;28;20023;-79
2023/12/04 03:52:53;;;;;;;9.57;2.80;;;;;;;6.54;68.29;99552.88;5069670;28;20273;-79
2023/12/04 03:55:19;;;;;;;14.70;3.40;;;;;;;6.51;68.78;99545.03;5069705;28;20021;-79
2023/12/04 03:57:45;;;;;;;7.50;3.30;;;;;;;6.47;69.08;99543.31;5069523;28;20020;-79
2023/12/04 04:00:11;;;;;;;10.03;3.60;;;;;;;6.43;69.10;99528.47;5069182;28;20086;-79
2023/12/04 04:02:37;;;;;;;8.32;3.22;;;;;;;6.40;68.84;99526.72;5069124;28;20031;-79
2023/12/04 04:05:03;;;;;;;10.75;3.83;;;;;;;6.37;69.12;99528.44;5069377;28;20029;-79
2023/12/04 04:07:28;;;;;;;9.93;3.10;;;;;;;6.31;69.73;99524.97;5069219;28;20032;-79
2023/12/04 04:09:54;;;;;;;8.33;2.90;;;;;;;6.29;69.31;99520.63;5069411;28;20498;-79
2023/12/04 04:12:19;;;;;;;9.07;3.33;;;;;;;6.26;69.17;99521.47;5069318;28;20270;-78
2023/12/04 04:14:44;;;;;;;11.23;3.63;;;;;;;6.22;69.92;99518.84;5069036;28;20016;-79
2023/12/04 04:17:10;;;;;;;11.23;4.23;;;;;;;6.20;70.65;99528.44;5069282;28;20029;-79
2023/12/04 04:19:35;;;;;;;10.90;3.70;;;;;;;6.14;70.15;99531.91;5067896;28;20500;-79
2023/12/04 04:22:01;;;;;;;9.93;4.32;;;;;;;6.08;71.02;99531.91;5068903;28;20029;-79
2023/12/04 04:24:26;;;;;;;9.77;3.63;;;;;;;6.03;70.60;99530.16;5060963;28;20166;-80
2023/12/04 04:26:51;;;;;;;9.17;4.50;;;;;;;5.99;71.84;99541.44;5066272;28;20021;-80
2023/12/04 04:29:17;;;;;;;11.27;3.60;;;;;;;5.95;70.96;99537.06;5069049;28;20013;-80
2023/12/04 04:31:42;;;;;;;9.33;4.00;;;;;;;5.93;72.41;99543.16;5069184;28;20256;-80
2023/12/04 04:34:07;;;;;;;12.30;4.20;;;;;;;5.90;71.78;99533.53;5069313;28;20546;-80
2023/12/04 04:36:35;;;;;;;8.83;4.23;;;;;;;5.90;71.45;99536.16;5069208;28;20040;-80
2023/12/04 04:39:01;;;;;;;10.27;4.28;;;;;;;5.86;72.32;99537.91;5069137;28;20020;-80
2023/12/04 04:41:26;;;;;;;14.40;3.80;;;;;;;5.85;72.26;99537.88;5069385;28;20040;-80
2023/12/04 04:43:52;;;;;;;10.90;3.80;;;;;;;5.84;72.18;99536.16;5068863;28;20096;-80
2023/12/04 04:46:17;;;;;;;15.23;3.72;;;;;;;5.83;72.95;99531.78;5069132;28;20055;-80
2023/12/04 04:48:43;;;;;;;9.63;4.40;;;;;;;5.83;73.41;99524.84;5068949;28;20029;-78
2023/12/04 04:51:08;;;;;;;12.77;4.27;;;;;;;5.80;73.73;99516.09;5069329;28;20189;-81
2023/12/04 04:53:33;;;;;;;12.83;4.63;;;;;;;5.83;73.27;99508.28;5069088;28;20773;-81
2023/12/04 04:55:59;;;;;;;10.83;3.43;;;;;;;5.83;72.46;99490.00;5068830;28;20028;-80
2023/12/04 04:58:25;;;;;;;9.57;3.72;;;;;;;5.81;71.91;99470.81;5072597;28;20520;-81
2023/12/04 05:00:50;;;;;;;11.17;3.63;;;;;;;5.81;73.05;99468.22;5072215;28;20119;-80
2023/12/04 05:03:15;;;;;;;11.90;4.13;;;;;;;5.80;72.83;99466.47;5072120;28;20032;-80
2023/12/04 05:05:41;;;;;;;13.40;4.70;;;;;;;5.80;73.62;99458.63;5072223;28;20062;-80
2023/12/04 05:08:06;;;;;;;9.50;4.40;;;;;;;5.79;73.37;99456.88;5072668;28;20026;-80
2023/12/04 05:10:32;;;;;;;10.87;4.33;;;;;;;5.76;74.04;99447.28;5071873;28;20267;-80
2023/12/04 05:12:57;;;;;;;10.00;4.07;;;;;;;5.73;73.39;99448.16;5072261;28;20366;-82
2023/12/04 05:15:22;;;;;;;10.57;3.80;;;;;;;5.69;74.05;99443.81;5071856;28;20362;-79
2023/12/04 05:17:48;;;;;;;13.03;3.97;;;;;;;5.67;75.23;99437.72;5071953;28;20099;-78
2023/12/04 05:20:13;;;;;;;11.27;4.03;;;;;;;5.69;74.66;99428.13;5071835;28;20039;-78
2023/12/04 05:22:39;;;;;;;11.07;4.33;;;;;;;5.69;74.43;99420.31;5072186;28;20052;-79
2023/12/04 05:25:05;;;;;;;12.20;3.53;;;;;;;5.69;74.73;99398.53;5060884;28;20397;-80
2023/12/04 05:27:31;;;;;;;12.43;3.95;;;;;;;5.67;74.98;99389.81;5071874;28;20035;-80
2023/12/04 05:29:56;;;;;;;13.60;3.97;;;;;;;5.70;74.00;99379.38;5071815;28;20372;-82
2023/12/04 05:32:22;;;;;;;12.23;4.47;;;;;;;5.70;74.79;99372.41;5072151;28;20025;-78
2023/12/04 05:34:47;;;;;;;11.70;5.43;;;;;;;5.69;75.84;99378.50;5071928;28;20099;-81
2023/12/04 05:37:12;;;;;;;9.47;4.50;;;;;;;5.72;75.46;99378.50;5071732;28;20020;-80
2023/12/04 05:39:38;;;;;;;9.88;4.40;;;;;;;5.71;76.09;99366.31;5071613;28;20420;-81
2023/12/04 05:42:03;;;;;;;11.43;4.13;;;;;;;5.72;75.08;99354.13;5071760;28;20362;-80
2023/12/04 05:44:29;;;;;;;12.07;3.97;;;;;;;5.72;75.72;99343.66;5071494;28;20108;-80
2023/12/04 05:46:54;;;;;;;11.97;4.57;;;;;;;5.73;76.03;99342.78;5071730;28;20499;-81
2023/12/04 05:49:20;;;;;;;11.00;3.50;;;;;;;5.72;77.50;99335.81;5071809;28;20024;-80
2023/12/04 05:51:45;;;;;;;11.43;4.57;;;;;;;5.67;77.45;99341.06;5071490;28;20037;-80
2023/12/04 05:54:10;;;;;;;11.63;3.60;;;;;;;5.72;76.58;99331.50;5071429;28;20156;-81
2023/12/04 05:56:36;;;;;;;11.73;3.70;;;;;;;5.79;76.51;99328.88;5071506;28;20029;-81
2023/12/04 05:59:02;;;;;;;10.40;3.85;;;;;;;5.84;77.40;99324.50;5071275;28;20039;-81
2023/12/04 06:01:27;;;;;;;14.03;3.93;;;;;;;5.86;77.33;99325.38;5070920;28;20059;-80
2023/12/04 06:03:52;;;;;;;14.23;3.67;;;;;;;5.90;76.20;99324.50;5071167;28;20477;-80
2023/12/04 06:06:18;;;;;;;8.70;3.20;;;;;;;5.88;76.99;99313.19;5070934;28;20048;-81
2023/12/04 06:08:43;;;;;;;9.33;3.17;;;;;;;5.93;77.54;99321.91;5070388;28;20282;-80
2023/12/04 06:11:08;;;;;;;12.57;3.60;;;;;;;6.00;77.30;99320.16;5071265;28;20025;-80
2023/12/04 06:13:34;;;;;;;12.87;3.80;;;;;;;5.98;77.58;99319.28;5071215;28;20392;-80
2023/12/04 06:15:59;;;;;;;13.60;3.70;;;;;;;6.02;78.40;99318.44;5071224;28;20525;-80
2023/12/04 06:18:25;;;;;;;10.83;3.40;;;;;;;6.05;78.14;99318.47;5070771;28;20028;-80
2023/12/04 06:20:50;;;;;;;8.32;3.08;;;;;;;6.08;77.63;99309.72;5070817;28;20122;-80
2023/12/04 06:23:16;;;;;;;15.27;3.50;;;;;;;6.05;77.53;99309.72;5071112;28;20056;-80
2023/12/04 06:25:41;;;;;;;11.23;3.33;;;;;;;6.10;77.97;99307.97;5059852;28;20024;-80
2023/12/04 06:28:08;;;;;;;14.70;3.50;;;;;;;6.09;78.85;99309.72;5070786;28;20029;-80
2023/12/04 06:30:34;;;;;;;8.50;3.08;;;;;;;6.12;78.05;99303.63;5070611;28;20186;-81
2023/12/04 06:32:59;;;;;;;9.47;3.20;;;;;;;6.17;77.57;99312.34;5070595;28;20467;-80
2023/12/04 06:35:26;;;;;;;12.05;3.20;;;;;;;6.21;77.07;99318.41;5070013;28;20052;-80
2023/12/04 06:37:55;;;;;;;10.60;3.47;;;;;;;6.21;77.88;99314.06;5069364;28;20024;-80
2023/12/04 06:40:22;;;;;;;11.07;3.50;;;;;;;6.26;77.45;99312.31;5069082;28;20029;-80
2023/12/04 06:42:48;;;;;;;10.02;2.50;;;;;;;6.28;77.22;99307.94;5068332;28;20382;-80
2023/12/04 06:45:14;;;;;;;12.90;3.17;;;;;;;6.30;77.14;99314.03;5069312;28;20101;-81
2023/12/04 06:47:40;;;;;;;12.40;3.20;;;;;;;6.33;77.42;99302.72;5069279;28;20498;-80
2023/12/04 06:50:06;;;;;;;10.85;3.67;;;;;;;6.35;77.51;99294.84;5068378;28;20058;-80
2023/12/04 06:52:32;;;;;;;14.40;2.97;;;;;;;6.35;77.07;99303.59;5069329;28;20463;-80
2023/12/04 06:54:57;;;;;;;12.33;2.93;;;;;;;6.37;77.08;99308.78;5069672;28;20111;-80
2023/12/04 06:57:22;;;;;;;16.23;3.33;;;;;;;6.36;77.72;99304.44;5069167;28;20032;-80
2023/12/04 06:59:48;;;;;;;13.37;3.80;;;;;;;6.40;77.88;99308.81;5068818;28;20130;-80
2023/12/04 07:02:13;;;;;;;12.50;3.47;;;;;;;6.42;77.57;99307.91;5068875;28;20086;-78
2023/12/04 07:04:39;;;;;;;12.77;3.45;;;;;;;6.39;78.38;99312.28;5068970;28;20042;-79
2023/12/04 07:07:05;;;;;;;14.07;3.33;;;;;;;6.44;78.43;99324.47;5069309;28;20123;-79
2023/12/04 07:09:32;;;;;;;8.93;3.20;;;;;;;6.46;77.89;99317.50;5069121;28;20108;-79
2023/12/04 07:11:57;;;;;;;11.95;3.25;;;;;;;6.46;77.73;99320.09;5068848;28;20033;-79
2023/12/04 07:14:23;;;;;;;18.33;4.40;;;;;;;6.50;77.90;99323.59;5069317;28;20074;-79
2023/12/04 07:16:49;;;;;;;14.30;3.40;;;;;;;6.49;77.89;99319.25;5068626;28;20035;-79
2023/12/04 07:19:16;;;;;;;11.15;3.40;;;;;;;6.51;77.80;99322.72;5068421;28;20086;-79
2023/12/04 07:21:41;;;;;;;10.82;3.40;;;;;;;6.53;77.79;99309.66;5068403;28;20037;-79
2023/12/04 07:24:07;;;;;;;11.83;3.20;;;;;;;6.56;77.52;99309.63;5068602;28;20048;-78
2023/12/04 07:26:33;;;;;;;11.43;3.65;;;;;;;6.56;77.86;99317.47;5068832;28;20033;-78
2023/12/04 07:28:59;;;;;;;13.93;4.07;;;;;;;6.57;77.63;99321.84;5068982;28;20061;-78
2023/12/04 07:31:26;;;;;;;15.50;3.70;;;;;;;6.56;76.96;99320.94;5067316;28;20044;-78
2023/12/04 07:33:55;;;;;;;12.13;3.88;;;;;;;6.57;77.71;99322.69;5069623;28;20032;-77
2023/12/04 07:36:21;;;;;;;11.83;4.13;;;;;;;6.56;76.98;99330.56;5067827;28;20024;-78
2023/12/04 07:38:47;;;;;;;12.07;4.68;;;;;;;6.55;77.26;99328.81;5068674;28;20032;-78
2023/12/04 07:41:13;;;;;;;17.03;4.90;;;;;;;6.51;77.87;99327.94;5068114;28;20079;-79
2023/12/04 07:43:39;;;;;;;19.43;6.37;;;;;;;6.43;78.15;99321.88;5068150;28;20282;-79
2023/12/04 07:46:05;;;;;;;15.25;5.00;;;;;;;6.41;78.09;99326.25;5068616;28;20025;-78
2023/12/04 07:48:30;;;;;;;14.83;5.43;;;;;;;6.42;77.64;99341.91;5069255;28;20028;-78
2023/12/04 07:50:56;;;;;;;17.52;6.65;;;;;;;6.41;77.22;99337.56;5069358;28;20404;-78
2023/12/04 07:53:22;;;;;;;14.15;5.55;;;;;;;6.43;76.78;99340.19;5069427;28;20111;-78
2023/12/04 07:55:49;;;;;;;13.87;5.20;;;;;;;6.43;77.64;99340.19;5068903;28;20028;-78
2023/12/04 07:58:15;;;;;;;12.45;4.90;;;;;;;6.41;77.69;99331.47;5067903;28;20044;-78
2023/12/04 08:00:40;;;;;;;15.18;4.88;;;;;;;6.40;76.99;99346.28;5067838;28;20416;-77
2023/12/04 08:03:06;;;;;;;14.90;5.30;;;;;;;6.40;76.80;99345.44;5068633;28;20655;-77
2023/12/04 08:05:32;;;;;;;13.35;5.78;;;;;;;6.42;77.50;99356.75;5069088;28;20118;-78
2023/12/04 08:07:57;;;;;;;14.03;5.57;;;;;;;6.44;76.90;99352.38;5069143;28;20512;-79
2023/12/04 08:10:23;;;;;;;15.27;5.73;;;;;;;6.46;77.05;99346.25;5068892;28;20423;-78
2023/12/04 08:12:48;;;;;;;19.98;6.30;;;;;;;6.49;76.55;99350.63;5067577;28;20047;-78
2023/12/04 08:15:14;;;;;;;13.57;5.83;;;;;;;6.49;76.92;99353.25;5069044;28;20040;-78
2023/12/04 08:17:40;;;;;;;18.03;5.10;;;;;;;6.50;76.71;99351.47;5068865;28;20036;-79
2023/12/04 08:20:06;;;;;;;14.60;5.20;;;;;;;6.51;76.58;99354.09;5068994;28;20271;-79
2023/12/04 08:22:31;;;;;;;12.98;4.88;;;;;;;6.54;76.71;99350.63;5068859;28;20102;-77
2023/12/04 08:24:58;;;;;;;16.10;4.97;;;;;;;6.57;77.07;99361.94;5068743;28;20447;-77
2023/12/04 08:27:24;;;;;;;14.35;4.80;;;;;;;6.60;76.21;99359.31;5069057;28;20031;-77
2023/12/04 08:29:49;;;;;;;13.88;4.43;;;;;;;6.65;76.62;99355.81;5068750;28;20028;-78
2023/12/04 08:32:15;;;;;;;19.43;4.83;;;;;;;6.70;76.07;99357.53;5070528;28;20119;-79
2023/12/04 08:34:40;;;;;;;19.40;5.18;;;;;;;6.76;76.18;99359.25;5071361;28;20028;-78
2023/12/04 08:37:06;;;;;;;14.17;5.30;;;;;;;6.93;75.74;99366.19;5072315;28;20172;-78
2023/12/04 08:39:31;;;;;;;17.53;5.40;;;;;;;7.00;76.01;99374.03;5071949;28;20035;-78
2023/12/04 08:41:57;;;;;;;12.07;5.00;;;;;;;7.03;76.25;99362.66;5072752;28;20039;-78
2023/12/04 08:44:23;;;;;;;10.88;4.57;;;;;;;7.04;76.33;99361.78;5072596;28;20025;-78
2023/12/04 08:46:49;;;;;;;14.40;4.30;;;;;;;7.06;75.64;99367.88;5072408;28;20050;-78
2023/12/04 08:49:14;;;;;;;16.70;6.23;;;;;;;7.08;75.90;99378.34;5072609;28;20104;-78
2023/12/04 08:51:39;;;;;;;12.27;5.03;;;;;;;7.08;75.68;99384.44;5072495;28;20031;-79
2023/12/04 08:54:07;;;;;;;12.43;4.83;;;;;;;7.09;75.59;99382.72;5072107;28;20028;-78
2023/12/04 08:56:32;;;;;;;18.60;6.63;;;;;;;7.10;75.88;99389.69;5072415;28;20077;-79
2023/12/04 08:58:58;;;;;;;21.47;8.47;;;;;;;7.15;76.03;99394.03;5072184;28;20021;-78
2023/12/04 09:01:23;;;;;;;14.57;5.28;;;;;;;7.26;76.00;99378.28;5071822;28;20666;-78
2023/12/04 09:03:49;;;;;;;15.30;5.83;;;;;;;7.33;75.42;99374.75;5072160;28;20073;-78
2023/12/04 09:06:15;;;;;;;14.13;6.57;;;;;;;7.41;75.19;99369.47;5072377;28;20025;-77
2023/12/04 09:08:41;;;;;;;14.53;5.43;;;;;;;7.54;75.47;99385.09;5072193;28;20044;-77
2023/12/04 09:11:06;;;;;;;34.78;7.43;;;;;;;7.64;75.16;99392.03;5072342;28;20032;-77
2023/12/04 09:13:33;;;;;;;18.27;5.50;;;;;;;7.72;75.16;99392.84;5071917;28;20110;-77
2023/12/04 09:15:59;;;;;;;11.82;4.57;;;;;;;7.87;74.77;99378.75;5070806;28;20058;-77
2023/12/04 09:18:25;;;;;;;15.07;4.63;;;;;;;8.09;74.53;99390.84;5072409;28;20071;-77
2023/12/04 09:20:50;;;;;;;14.88;4.63;;;;;;;8.26;73.76;99395.94;5072399;28;20032;-78
2023/12/04 09:23:15;;;;;;;15.17;4.97;;;;;;;8.43;73.74;99393.16;5072533;28;20067;-77
2023/12/04 09:25:41;;;;;;;12.80;4.50;;;;;;;8.64;73.83;99388.63;5071748;28;20025;-77
2023/12/04 09:28:07;;;;;;;9.63;4.40;;;;;;;8.87;73.60;99384.00;5072148;28;20032;-77
2023/12/04 09:30:34;;;;;;;13.30;4.33;;;;;;;9.05;73.30;99382.91;5072291;28;20263;-78
2023/12/04 09:32:59;;;;;;;14.57;4.63;;;;;;;9.21;73.03;99394.97;5071732;28;20066;-77
2023/12/04 09:35:25;;;;;;;12.20;4.50;;;;;;;9.28;72.92;99388.75;5071812;28;20430;-77
2023/12/04 09:37:54;;;;;;;10.93;4.03;;;;;;;9.31;72.85;99383.47;5071591;28;20267;-77
2023/12/04 09:40:19;;;;;;;12.37;4.17;;;;;;;9.41;72.90;99382.47;5071657;28;20039;-78
2023/12/04 09:42:45;;;;;;;12.73;3.85;;;;;;;9.59;72.40;99378.69;5071044;28;20029;-77
2023/12/04 09:45:13;;;;;;;15.70;4.10;;;;;;;9.79;72.11;99374.91;5071189;28;20096;-78
2023/12/04 09:47:38;;;;;;;13.47;3.80;;;;;;;9.89;72.33;99384.41;5071992;28;20029;-78
2023/12/04 09:50:05;;;;;;;14.25;4.40;;;;;;;9.97;71.59;99384.25;5071504;28;20032;-78
2023/12/04 09:52:31;;;;;;;14.07;4.00;;;;;;;10.20;71.40;99380.41;5051758;28;20040;-77
2023/12/04 09:54:56;;;;;;;13.77;4.07;;;;;;;10.42;71.41;99387.94;5051492;28;20020;-78
2023/12/04 09:57:24;;;;;;;9.43;3.23;;;;;;;10.63;71.08;99387.56;5051180;28;20497;-77
2023/12/04 09:59:51;;;;;;;12.48;3.47;;;;;;;10.76;70.77;99392.63;5068485;28;20027;-78
2023/12/04 10:02:17;;;;;;;13.27;3.58;;;;;;;10.81;70.08;99385.50;5069443;28;20020;-80
2023/12/04 10:04:43;;;;;;;8.55;2.33;;;;;;;10.94;70.32;99387.88;5071559;28;20037;-79
2023/12/04 10:07:08;;;;;;;10.80;2.97;;;;;;;11.08;69.20;99396.38;5071396;28;20037;-79
2023/12/04 10:09:34;;;;;;;12.37;3.60;;;;;;;11.33;67.17;99395.88;5070964;28;20404;-78
2023/12/04 10:11:59;;;;;;;11.48;2.80;;;;;;;11.53;67.41;99387.50;5071135;28;20090;-79
2023/12/04 10:14:25;;;;;;;11.93;3.10;;;;;;;11.59;66.30;99386.53;5070964;28;20055;-77
2023/12/04 10:16:52;;;;;;;9.38;2.00;;;;;;;11.53;65.84;99386.66;5070783;28;20024;-78
2023/12/04 10:19:27;;;;;;;11.82;1.80;;;;;;;11.54;66.47;99394.53;5070653;28;20052;-78
2023/12/04 10:21:55;;;;;;;7.30;1.70;;;;;;;11.49;65.65;99397.28;5070934;28;20059;-78
2023/12/04 10:24:41;;;;;;;7.05;1.52;;;;;;;11.34;64.05;99402.88;5070482;28;20086;-78
2023/12/04 10:27:11;;;;;;;8.07;1.50;;;;;;;11.26;65.80;99410.09;5070574;28;20028;-78
2023/12/04 10:29:48;;;;;;;10.02;2.10;;;;;;;11.32;66.08;99402.03;5070797;28;20107;-78
2023/12/04 10:32:17;;;;;;;7.43;1.50;;;;;;;11.54;65.51;99391.03;5070833;28;20079;-78
2023/12/04 10:34:43;;;;;;;7.03;1.40;;;;;;;11.80;64.57;99381.66;5070716;28;20031;-78
2023/12/04 10:37:10;;;;;;;6.10;1.30;;;;;;;11.92;64.40;99382.25;5070908;28;20025;-79
2023/12/04 10:39:55;;;;;;;11.30;1.93;;;;;;;12.05;64.06;99385.47;5070450;28;20741;-78
2023/12/04 10:42:29;;;;;;;8.35;1.50;;;;;;;12.26;61.19;99392.88;5068608;28;20459;-78
2023/12/04 10:44:58;;;;;;;6.43;1.30;;;;;;;12.38;61.89;99375.88;5070218;28;20028;-78
2023/12/04 10:47:23;;;;;;;6.22;1.30;;;;;;;12.43;61.53;99368.72;5070597;28;20047;-78
2023/12/04 10:49:50;;;;;;;6.87;1.53;;;;;;;12.63;60.88;99363.75;5068999;28;20500;-77
2023/12/04 10:52:16;;;;;;;9.00;1.38;;;;;;;12.68;61.00;99361.00;5070542;28;20043;-77
2023/12/04 10:54:41;;;;;;;7.20;1.40;;;;;;;12.73;61.03;99355.59;5070106;28;20260;-78
2023/12/04 10:57:09;;;;;;;10.57;1.70;;;;;;;12.80;60.13;99346.56;5070065;28;20315;-77
2023/12/04 10:59:38;;;;;;;7.70;1.10;;;;;;;12.84;60.94;99353.50;5069842;28;20024;-78
2023/12/04 11:02:08;;;;;;;5.63;1.73;;;;;;;13.02;59.74;99351.25;5069813;28;20028;-77
2023/12/04 11:04:36;;;;;;;9.02;2.00;;;;;;;13.17;60.00;99350.81;5069845;28;20025;-78
2023/12/04 11:07:04;;;;;;;9.13;1.80;;;;;;;13.16;59.42;99338.50;5070105;28;20404;-78
2023/12/04 11:09:31;;;;;;;6.57;1.55;;;;;;;13.28;59.80;99342.56;5069985;28;20185;-78
2023/12/04 11:12:02;;;;;;;6.13;1.52;;;;;;;13.48;58.55;99338.44;5069877;28;20449;-77
2023/12/04 11:14:34;;;;;;;6.93;1.73;;;;;;;13.62;58.11;99320.38;5069808;28;20031;-77
2023/12/04 11:17:06;;;;;;;7.80;2.05;;;;;;;13.60;58.01;99316.03;5069571;28;20070;-77
2023/12/04 11:20:23;;;;;;;12.47;2.20;;;;;;;13.72;57.66;99326.25;5069778;28;20024;-77
2023/12/04 11:22:50;;;;;;;7.53;1.80;;;;;;;13.73;57.56;99327.97;5052289;28;20047;-78
2023/12/04 11:25:16;;;;;;;8.80;1.83;;;;;;;13.70;58.29;99322.78;5069347;28;20060;-77
2023/12/04 11:27:42;;;;;;;8.60;2.13;;;;;;;13.71;58.03;99316.59;5069856;28;20112;-77
2023/12/04 11:30:09;;;;;;;8.20;2.00;;;;;;;13.65;58.49;99324.72;5069686;28;20013;-78
2023/12/04 11:32:45;;;;;;;9.67;2.07;;;;;;;13.57;57.72;99322.31;5069883;28;20029;-78